createdAt,value
2018-02-12T00:00:22.015Z,1.50
2018-02-12T00:02:49.407Z,1.47
2018-02-12T00:05:16.734Z,1.40
2018-02-12T00:07:44.086Z,1.27
2018-02-12T00:10:11.410Z,1.00
2018-02-12T00:12:38.777Z,1.73
2018-02-12T00:15:06.102Z,1.00
2018-02-12T00:17:33.489Z,1.93
2018-02-12T00:20:00.825Z,1.13
2018-02-12T00:22:28.202Z,1.70
2018-02-12T00:24:55.526Z,1.13
2018-02-12T00:27:22.962Z,1.10
2018-02-12T00:29:50.314Z,1.43
2018-02-12T00:32:17.652Z,1.60
2018-02-12T00:34:45.023Z,1.80
2018-02-12T00:37:12.351Z,1.20
2018-02-12T00:39:39.713Z,1.13
2018-02-12T00:42:07.038Z,1.30
2018-02-12T00:44:34.444Z,1.50
2018-02-12T00:47:01.770Z,1.10
2018-02-12T00:49:29.144Z,1.33
2018-02-12T00:51:56.481Z,1.47
2018-02-12T00:54:23.810Z,1.40
2018-02-12T00:56:51.219Z,1.53
2018-02-12T00:59:18.575Z,1.30
2018-02-12T01:01:45.922Z,1.27
2018-02-12T01:04:13.248Z,1.80
2018-02-12T01:06:40.609Z,1.50
2018-02-12T01:09:07.941Z,1.90
2018-02-12T01:11:35.310Z,1.87
2018-02-12T01:14:02.639Z,1.40
2018-02-12T01:16:29.997Z,1.70
2018-02-12T01:18:57.412Z,2.13
2018-02-12T01:21:24.741Z,1.60
2018-02-12T01:23:52.115Z,1.73
2018-02-12T01:26:19.477Z,2.10
2018-02-12T01:28:46.935Z,1.60
2018-02-12T01:31:14.292Z,2.10
2018-02-12T01:33:41.666Z,1.83
2018-02-12T01:36:08.995Z,2.00
2018-02-12T01:38:36.382Z,1.80
2018-02-12T01:41:03.814Z,1.80
2018-02-12T01:43:31.199Z,2.10
2018-02-12T01:45:58.552Z,1.43
2018-02-12T01:48:25.880Z,2.30
2018-02-12T01:50:53.240Z,2.20
2018-02-12T01:53:20.572Z,1.60
2018-02-12T01:55:47.924Z,2.10
2018-02-12T01:58:15.251Z,1.73
2018-02-12T02:00:42.621Z,2.30
2018-02-12T02:03:09.985Z,2.12
2018-02-12T02:05:37.346Z,1.67
2018-02-12T02:08:04.675Z,1.50
2018-02-12T02:10:32.055Z,2.00
2018-02-12T02:12:59.397Z,1.77
2018-02-12T02:15:26.722Z,1.80
2018-02-12T02:17:54.099Z,1.40
2018-02-12T02:20:21.424Z,1.43
2018-02-12T02:22:48.794Z,2.37
2018-02-12T02:25:16.122Z,1.97
2018-02-12T02:27:43.484Z,1.80
2018-02-12T02:30:10.823Z,1.50
2018-02-12T02:32:38.217Z,2.00
2018-02-12T02:35:05.550Z,1.90
2018-02-12T02:37:32.978Z,1.40
2018-02-12T02:40:00.346Z,1.83
2018-02-12T02:42:27.675Z,1.97
2018-02-12T02:44:55.045Z,2.80
2018-02-12T02:47:22.378Z,1.57
2018-02-12T02:49:49.749Z,2.20
2018-02-12T02:52:17.070Z,1.60
2018-02-12T02:54:44.428Z,1.50
2018-02-12T02:57:11.772Z,2.03
2018-02-12T02:59:39.122Z,1.67
2018-02-12T03:02:06.452Z,1.63
2018-02-12T03:04:33.809Z,1.60
2018-02-12T03:07:01.167Z,1.90
2018-02-12T03:09:28.503Z,2.37
2018-02-12T03:11:55.872Z,2.35
2018-02-12T03:14:23.301Z,2.20
2018-02-12T03:16:50.664Z,2.42
2018-02-12T03:19:18.013Z,1.90
2018-02-12T03:21:45.386Z,2.20
2018-02-12T03:24:12.736Z,2.83
2018-02-12T03:26:40.098Z,2.80
2018-02-12T03:29:07.464Z,2.08
2018-02-12T03:31:34.809Z,2.10
2018-02-12T03:34:02.183Z,2.10
2018-02-12T03:36:29.591Z,2.33
2018-02-12T03:38:56.994Z,2.33
2018-02-12T03:41:24.349Z,2.75
2018-02-12T03:43:51.747Z,2.33
2018-02-12T03:46:19.085Z,2.62
2018-02-12T03:48:46.439Z,2.85
2018-02-12T03:51:13.809Z,2.30
2018-02-12T03:53:41.151Z,2.33
2018-02-12T03:56:08.510Z,1.70
2018-02-12T03:58:35.843Z,2.30
2018-02-12T04:01:03.208Z,2.40
2018-02-12T04:03:30.543Z,1.75
2018-02-12T04:05:57.898Z,2.12
2018-02-12T04:08:25.229Z,1.83
2018-02-12T04:10:52.635Z,2.40
2018-02-12T04:13:19.987Z,2.00
2018-02-12T04:15:47.316Z,2.12
2018-02-12T04:18:14.724Z,2.00
2018-02-12T04:20:42.065Z,1.87
2018-02-12T04:23:09.641Z,2.00
2018-02-12T04:25:36.982Z,2.70
2018-02-12T04:28:04.339Z,2.30
2018-02-12T04:30:31.680Z,2.40
2018-02-12T04:32:59.047Z,2.50
2018-02-12T04:35:26.390Z,2.47
2018-02-12T04:37:53.754Z,2.53
2018-02-12T04:40:21.084Z,2.80
2018-02-12T04:42:48.451Z,2.30
2018-02-12T04:45:15.789Z,2.22
2018-02-12T04:47:43.130Z,2.37
2018-02-12T04:50:10.491Z,2.05
2018-02-12T04:52:37.832Z,2.10
2018-02-12T04:55:05.206Z,2.08
2018-02-12T04:57:32.542Z,2.45
2018-02-12T04:59:59.920Z,2.05
2018-02-12T05:02:27.250Z,2.50
2018-02-12T05:04:54.611Z,2.20
2018-02-12T05:07:21.939Z,2.53
2018-02-12T05:09:49.309Z,2.45
2018-02-12T05:12:16.654Z,2.42
2018-02-12T05:14:44.027Z,2.30
2018-02-12T05:17:11.375Z,2.22
2018-02-12T05:19:38.711Z,2.70
2018-02-12T05:22:06.092Z,2.50
2018-02-12T05:24:33.428Z,2.40
2018-02-12T05:27:00.787Z,2.85
2018-02-12T05:29:28.122Z,2.85
2018-02-12T05:31:55.494Z,2.53
2018-02-12T05:34:22.852Z,2.70
2018-02-12T05:36:50.229Z,3.00
2018-02-12T05:39:17.568Z,3.05
2018-02-12T05:41:44.934Z,3.25
2018-02-12T05:44:12.275Z,2.50
2018-02-12T05:46:39.622Z,2.78
2018-02-12T05:49:06.983Z,3.67
2018-02-12T05:51:34.413Z,3.35
2018-02-12T05:54:01.773Z,2.62
2018-02-12T05:56:29.121Z,3.00
2018-02-12T05:58:56.580Z,2.97
2018-02-12T06:01:23.912Z,2.50
2018-02-12T06:03:51.276Z,2.42
2018-02-12T06:06:18.614Z,2.03
2018-02-12T06:08:45.977Z,2.72
2018-02-12T06:11:13.314Z,1.80
2018-02-12T06:13:40.676Z,1.52
2018-02-12T06:16:08.044Z,1.80
2018-02-12T06:18:35.397Z,1.83
2018-02-12T06:21:02.773Z,1.85
2018-02-12T06:23:30.106Z,2.00
2018-02-12T06:25:57.468Z,2.20
2018-02-12T06:28:24.806Z,2.20
2018-02-12T06:30:52.174Z,2.80
2018-02-12T06:33:19.517Z,2.53
2018-02-12T06:35:46.885Z,2.90
2018-02-12T06:38:14.218Z,6.57
2018-02-12T06:40:41.635Z,3.10
2018-02-12T06:43:08.975Z,3.25
2018-02-12T06:45:36.305Z,3.60
2018-02-12T06:48:03.680Z,3.10
2018-02-12T06:50:31.020Z,2.95
2018-02-12T06:52:58.378Z,3.30
2018-02-12T06:55:25.714Z,4.10
2018-02-12T06:57:53.075Z,4.07
2018-02-12T07:00:20.420Z,3.60
2018-02-12T07:02:47.786Z,3.37
2018-02-12T07:05:15.111Z,2.90
2018-02-12T07:07:42.485Z,3.47
2018-02-12T07:10:09.855Z,3.17
2018-02-12T07:12:37.215Z,3.35
2018-02-12T07:15:04.577Z,2.70
2018-02-12T07:17:31.930Z,3.25
2018-02-12T07:19:59.298Z,7.35
2018-02-12T07:22:26.640Z,3.87
2018-02-12T07:24:54.004Z,5.43
2018-02-12T07:27:21.329Z,4.43
2018-02-12T07:29:48.695Z,3.58
2018-02-12T07:32:16.062Z,3.08
2018-02-12T07:34:43.466Z,3.10
2018-02-12T07:37:10.797Z,2.30
2018-02-12T07:39:38.140Z,2.65
2018-02-12T07:42:05.535Z,2.70
2018-02-12T07:44:32.867Z,2.97
2018-02-12T07:47:00.294Z,3.45
2018-02-12T07:49:27.638Z,4.50
2018-02-12T07:51:55.031Z,3.47
2018-02-12T07:54:22.460Z,3.53
2018-02-12T07:56:49.827Z,2.87
2018-02-12T07:59:17.166Z,4.40
2018-02-12T08:01:44.539Z,3.00
2018-02-12T08:04:11.883Z,3.50
2018-02-12T08:06:39.281Z,3.15
2018-02-12T08:09:06.618Z,3.45
2018-02-12T08:11:33.945Z,3.55
2018-02-12T08:14:01.315Z,3.45
2018-02-12T08:16:28.659Z,2.90
2018-02-12T08:18:56.024Z,3.25
2018-02-12T08:21:23.366Z,3.90
2018-02-12T08:23:50.736Z,3.50
2018-02-12T08:26:18.092Z,3.33
2018-02-12T08:28:45.457Z,3.05
2018-02-12T08:31:12.830Z,4.10
2018-02-12T08:33:40.184Z,3.47
2018-02-12T08:36:07.602Z,3.40
2018-02-12T08:38:34.989Z,3.45
2018-02-12T08:41:02.376Z,3.42
2018-02-12T08:43:29.708Z,2.50
2018-02-12T08:45:57.079Z,3.75
2018-02-12T08:48:24.413Z,3.65
2018-02-12T08:50:51.781Z,3.92
2018-02-12T08:53:19.113Z,2.10
2018-02-12T08:55:46.481Z,2.08
2018-02-12T08:58:13.808Z,2.00
2018-02-12T09:00:41.181Z,1.80
2018-02-12T09:03:08.517Z,1.55
2018-02-12T09:05:35.872Z,2.00
2018-02-12T09:08:03.209Z,1.65
2018-02-12T09:10:30.578Z,1.70
2018-02-12T09:12:58.019Z,2.30
2018-02-12T09:15:25.354Z,1.70
2018-02-12T09:17:52.727Z,1.85
2018-02-12T09:20:20.068Z,1.95
2018-02-12T09:22:47.430Z,2.00
2018-02-12T09:25:14.769Z,2.20
2018-02-12T09:27:42.131Z,2.30
2018-02-12T09:30:09.484Z,2.35
2018-02-12T09:32:36.894Z,2.37
2018-02-12T09:35:04.217Z,2.97
2018-02-12T09:37:31.555Z,2.45
2018-02-12T09:39:58.925Z,2.70
2018-02-12T09:42:26.259Z,2.50
2018-02-12T09:44:53.624Z,2.30
2018-02-12T09:47:20.970Z,2.05
2018-02-12T09:49:48.342Z,2.50
2018-02-12T09:52:15.714Z,3.00
2018-02-12T09:54:43.077Z,3.40
2018-02-12T09:57:10.413Z,3.23
2018-02-12T09:59:37.812Z,3.47
2018-02-12T10:02:05.142Z,3.97
2018-02-12T10:04:32.468Z,4.20
2018-02-12T10:06:59.823Z,3.73
2018-02-12T10:09:27.171Z,3.93
2018-02-12T10:11:54.528Z,2.93
2018-02-12T10:14:21.862Z,2.90
2018-02-12T10:16:49.230Z,2.67
2018-02-12T10:19:16.565Z,2.90
2018-02-12T10:21:43.922Z,2.50
2018-02-12T10:24:11.309Z,2.70
2018-02-12T10:26:38.671Z,2.53
2018-02-12T10:29:05.999Z,2.60
2018-02-12T10:31:33.356Z,2.87
2018-02-12T10:34:00.774Z,2.35
2018-02-12T10:36:28.106Z,2.80
2018-02-12T10:38:55.513Z,3.00
2018-02-12T10:41:22.821Z,2.57
2018-02-12T10:43:50.326Z,3.00
2018-02-12T10:46:17.830Z,3.17
2018-02-12T10:48:45.177Z,3.20
2018-02-12T10:51:12.519Z,2.50
2018-02-12T10:53:39.873Z,3.30
2018-02-12T10:56:07.213Z,2.80
2018-02-12T10:58:34.580Z,2.53
2018-02-12T11:01:01.916Z,2.70
2018-02-12T11:03:29.243Z,3.30
2018-02-12T11:05:56.605Z,2.73
2018-02-12T11:08:23.968Z,2.33
2018-02-12T11:10:51.329Z,2.40
2018-02-12T11:13:18.655Z,2.73
2018-02-12T11:15:46.052Z,2.90
2018-02-12T11:18:13.386Z,2.67
2018-02-12T11:20:40.714Z,3.03
2018-02-12T11:23:08.075Z,2.73
2018-02-12T11:25:35.402Z,2.60
2018-02-12T11:28:02.775Z,3.50
2018-02-12T11:30:30.107Z,2.73
2018-02-12T11:32:57.960Z,3.23
2018-02-12T11:35:25.934Z,2.73
2018-02-12T11:37:54.721Z,2.93
2018-02-12T11:40:22.791Z,2.77
2018-02-12T11:42:50.222Z,2.63
2018-02-12T11:45:17.555Z,3.07
2018-02-12T11:47:44.992Z,2.20
2018-02-12T11:50:12.322Z,3.10
2018-02-12T11:52:39.690Z,3.40
2018-02-12T11:55:07.047Z,2.30
2018-02-12T11:57:34.377Z,2.07
2018-02-12T12:00:01.834Z,2.70
2018-02-12T12:02:29.392Z,1.80
2018-02-12T12:04:56.732Z,2.27
2018-02-12T12:07:24.062Z,2.83
2018-02-12T12:09:51.515Z,2.70
2018-02-12T12:12:18.841Z,3.10
2018-02-12T12:14:46.189Z,2.80
2018-02-12T12:17:13.516Z,2.63
2018-02-12T12:19:40.980Z,2.83
2018-02-12T12:22:08.329Z,2.63
2018-02-12T12:24:35.792Z,3.10
2018-02-12T12:27:03.142Z,3.57
2018-02-12T12:29:30.478Z,2.90
2018-02-12T12:31:57.850Z,3.50
2018-02-12T12:34:25.337Z,2.73
2018-02-12T12:36:52.722Z,3.50
2018-02-12T12:39:20.050Z,2.67
2018-02-12T12:41:47.683Z,2.60
2018-02-12T12:44:15.764Z,1.97
2018-02-12T12:46:44.188Z,2.47
2018-02-12T12:49:12.742Z,1.97
2018-02-12T12:51:40.701Z,2.70
2018-02-12T12:54:08.279Z,1.83
2018-02-12T12:56:35.703Z,3.30
2018-02-12T12:59:03.056Z,2.57
2018-02-12T13:01:30.388Z,2.20
2018-02-12T13:03:58.294Z,2.43
2018-02-12T13:06:26.048Z,2.57
2018-02-12T13:08:53.403Z,2.37
2018-02-12T13:11:20.738Z,2.33
2018-02-12T13:13:48.093Z,2.10
2018-02-12T13:16:15.467Z,2.10
2018-02-12T13:18:42.923Z,2.90
2018-02-12T13:21:10.275Z,2.50
2018-02-12T13:23:37.604Z,2.57
2018-02-12T13:26:04.948Z,3.03
2018-02-12T13:28:32.381Z,2.00
2018-02-12T13:30:59.743Z,2.37
2018-02-12T13:33:27.082Z,1.70
2018-02-12T13:35:54.434Z,2.53
2018-02-12T13:38:21.772Z,2.23
2018-02-12T13:40:49.170Z,2.20
2018-02-12T13:43:16.526Z,2.00
2018-02-12T13:45:43.859Z,1.87
2018-02-12T13:48:11.212Z,2.60
2018-02-12T13:50:38.543Z,2.80
2018-02-12T13:53:06.113Z,1.87
2018-02-12T13:55:33.452Z,1.47
2018-02-12T13:58:00.806Z,1.92
2018-02-12T14:00:28.157Z,1.60
2018-02-12T14:02:55.495Z,2.03
2018-02-12T14:05:22.847Z,1.97
2018-02-12T14:07:50.172Z,1.83
2018-02-12T14:10:17.536Z,2.23
2018-02-12T14:12:44.863Z,2.50
2018-02-12T14:15:12.221Z,2.63
2018-02-12T14:17:39.544Z,2.20
2018-02-12T14:20:06.897Z,1.77
2018-02-12T14:22:34.228Z,2.00
2018-02-12T14:25:01.579Z,2.20
2018-02-12T14:27:28.909Z,2.20
2018-02-12T14:29:56.257Z,2.00
2018-02-12T14:32:23.582Z,1.87
2018-02-12T14:34:50.939Z,2.10
2018-02-12T14:37:18.281Z,2.00
2018-02-12T14:39:45.634Z,2.60
2018-02-12T14:42:12.992Z,3.30
2018-02-12T14:44:40.343Z,3.10
2018-02-12T14:47:07.673Z,3.07
2018-02-12T14:49:35.030Z,2.10
2018-02-12T14:52:02.412Z,1.90
2018-02-12T14:54:29.780Z,2.00
2018-02-12T14:56:57.107Z,1.90
2018-02-12T14:59:24.477Z,2.00
2018-02-12T15:01:51.841Z,2.20
2018-02-12T15:04:19.174Z,2.00
2018-02-12T15:06:46.745Z,3.10
2018-02-12T15:09:14.084Z,1.87
2018-02-12T15:11:41.474Z,2.20
2018-02-12T15:14:08.802Z,2.37
2018-02-12T15:16:36.159Z,3.47
2018-02-12T15:19:03.489Z,3.20
2018-02-12T15:21:30.999Z,2.30
2018-02-12T15:23:58.440Z,3.17
2018-02-12T15:26:25.831Z,2.83
2018-02-12T15:28:53.161Z,2.73
2018-02-12T15:31:20.522Z,3.17
2018-02-12T15:33:47.853Z,2.60
2018-02-12T15:36:15.209Z,2.47
2018-02-12T15:38:42.545Z,2.12
2018-02-12T15:41:09.902Z,2.80
2018-02-12T15:43:37.226Z,2.67
2018-02-12T15:46:04.560Z,2.43
2018-02-12T15:48:31.901Z,2.37
2018-02-12T15:50:59.243Z,2.40
2018-02-12T15:53:26.663Z,2.20
2018-02-12T15:55:53.989Z,2.40
2018-02-12T15:58:21.323Z,2.23
2018-02-12T16:00:48.677Z,2.60
2018-02-12T16:03:16.110Z,3.10
2018-02-12T16:05:43.464Z,2.80
2018-02-12T16:08:10.803Z,2.37
2018-02-12T16:10:38.170Z,3.20
2018-02-12T16:13:05.510Z,2.90
2018-02-12T16:15:32.941Z,3.17
2018-02-12T16:18:00.360Z,3.27
2018-02-12T16:20:27.724Z,3.53
2018-02-12T16:22:55.165Z,3.20
2018-02-12T16:25:22.611Z,3.10
2018-02-12T16:27:49.945Z,3.97
2018-02-12T16:30:17.305Z,3.83
2018-02-12T16:32:44.635Z,2.57
2018-02-12T16:35:11.993Z,2.73
2018-02-12T16:37:39.326Z,2.90
2018-02-12T16:40:06.740Z,2.50
2018-02-12T16:42:34.099Z,2.47
2018-02-12T16:45:01.560Z,2.50
2018-02-12T16:47:29.557Z,3.00
2018-02-12T16:49:57.756Z,4.17
2018-02-12T16:52:25.700Z,3.60
2018-02-12T16:54:53.904Z,4.00
2018-02-12T16:57:21.924Z,2.60
2018-02-12T16:59:49.889Z,2.93
2018-02-12T17:02:18.013Z,3.07
2018-02-12T17:04:46.381Z,2.93
2018-02-12T17:07:14.576Z,3.20
2018-02-12T17:09:42.517Z,3.70
2018-02-12T17:12:10.583Z,4.23
2018-02-12T17:14:38.682Z,3.63
2018-02-12T17:17:06.648Z,6.77
2018-02-12T17:19:34.623Z,5.90
2018-02-12T17:22:02.819Z,7.10
2018-02-12T17:24:30.901Z,7.07
2018-02-12T17:26:59.085Z,7.93
2018-02-12T17:29:26.630Z,6.63
2018-02-12T17:31:53.959Z,6.83
2018-02-12T17:34:21.322Z,5.90
2018-02-12T17:36:48.676Z,8.37
2018-02-12T17:39:16.026Z,7.80
2018-02-12T17:41:43.399Z,6.13
2018-02-12T17:44:10.741Z,6.20
2018-02-12T17:46:38.106Z,7.60
2018-02-12T17:49:05.446Z,9.33
2018-02-12T17:51:32.835Z,6.20
2018-02-12T17:54:00.190Z,7.70
2018-02-12T17:56:27.554Z,8.20
2018-02-12T17:58:54.895Z,8.13
2018-02-12T18:01:22.260Z,8.27
2018-02-12T18:03:49.601Z,7.53
2018-02-12T18:06:16.965Z,6.53
2018-02-12T18:08:44.294Z,5.30
2018-02-12T18:11:11.689Z,5.13
2018-02-12T18:13:39.020Z,4.10
2018-02-12T18:16:06.350Z,4.00
2018-02-12T18:18:33.716Z,4.30
2018-02-12T18:21:01.090Z,4.30
2018-02-12T18:23:28.435Z,3.80
2018-02-12T18:25:55.761Z,3.83
2018-02-12T18:28:23.123Z,4.87
2018-02-12T18:30:50.461Z,5.13
2018-02-12T18:33:17.813Z,5.40
2018-02-12T18:35:45.159Z,5.50
2018-02-12T18:38:12.542Z,5.63
2018-02-12T18:40:39.880Z,5.43
2018-02-12T18:43:07.213Z,4.80
2018-02-12T18:45:34.580Z,6.30
2018-02-12T18:48:01.910Z,4.77
2018-02-12T18:50:29.270Z,5.00
2018-02-12T18:52:56.804Z,6.83
2018-02-12T18:55:24.162Z,8.13
2018-02-12T18:57:51.504Z,10.37
2018-02-12T19:00:18.862Z,33.63
2018-02-12T19:02:46.202Z,40.67
2018-02-12T19:05:13.566Z,8.30
2018-02-12T19:07:40.915Z,5.63
2018-02-12T19:10:08.280Z,3.87
2018-02-12T19:12:35.610Z,4.03
2018-02-12T19:15:02.974Z,3.70
2018-02-12T19:17:30.318Z,5.00
2018-02-12T19:19:57.647Z,3.90
2018-02-12T19:22:25.006Z,4.40
2018-02-12T19:24:52.333Z,4.70
2018-02-12T19:27:19.692Z,5.43
2018-02-12T19:29:47.022Z,5.33
2018-02-12T19:32:14.484Z,5.07
2018-02-12T19:34:41.810Z,4.97
2018-02-12T19:37:09.174Z,4.37
2018-02-12T19:39:36.511Z,4.10
2018-02-12T19:42:03.859Z,10.13
2018-02-12T19:44:31.229Z,6.87
2018-02-12T19:46:58.578Z,4.40
2018-02-12T19:49:25.942Z,5.03
2018-02-12T19:51:53.366Z,4.97
2018-02-12T19:54:21.085Z,4.83
2018-02-12T19:56:48.678Z,5.03
2018-02-12T19:59:17.283Z,5.30
2018-02-12T20:01:44.829Z,5.40
2018-02-12T20:04:12.177Z,5.40
2018-02-12T20:06:39.518Z,6.37
2018-02-12T20:09:06.901Z,7.50
2018-02-12T20:11:34.235Z,5.90
2018-02-12T20:14:01.666Z,6.33
2018-02-12T20:16:29.026Z,6.23
2018-02-12T20:18:56.357Z,5.50
2018-02-12T20:21:23.719Z,6.23
2018-02-12T20:23:51.047Z,5.07
2018-02-12T20:26:18.428Z,5.23
2018-02-12T20:28:45.824Z,5.63
2018-02-12T20:31:13.211Z,5.60
2018-02-12T20:33:40.568Z,4.63
2018-02-12T20:36:07.902Z,5.40
2018-02-12T20:38:35.272Z,5.50
2018-02-12T20:41:02.672Z,5.63
2018-02-12T20:43:30.058Z,6.57
2018-02-12T20:45:57.506Z,5.97
2018-02-12T20:48:24.877Z,6.83
2018-02-12T20:50:52.214Z,10.80
2018-02-12T20:53:19.541Z,5.80
2018-02-12T20:55:46.899Z,6.00
2018-02-12T20:58:14.235Z,5.10
2018-02-12T21:00:41.715Z,5.87
2018-02-12T21:03:09.172Z,8.30
2018-02-12T21:05:36.542Z,27.90
2018-02-12T21:08:03.893Z,11.97
2018-02-12T21:10:31.258Z,7.00
2018-02-12T21:12:58.598Z,6.30
2018-02-12T21:15:25.995Z,6.50
2018-02-12T21:17:53.329Z,5.90
2018-02-12T21:20:20.988Z,6.23
2018-02-12T21:22:48.420Z,5.37
2018-02-12T21:25:15.761Z,5.83
2018-02-12T21:27:43.123Z,5.03
2018-02-12T21:30:10.645Z,5.30
2018-02-12T21:32:38.089Z,5.33
2018-02-12T21:35:05.463Z,5.27
2018-02-12T21:37:32.818Z,8.53
2018-02-12T21:40:00.210Z,6.37
2018-02-12T21:42:27.669Z,6.63
2018-02-12T21:44:54.998Z,6.33
2018-02-12T21:47:22.359Z,7.40
2018-02-12T21:49:49.689Z,7.00
2018-02-12T21:52:17.051Z,8.00
2018-02-12T21:54:44.383Z,6.87
2018-02-12T21:57:11.734Z,6.80
2018-02-12T21:59:39.067Z,6.33
2018-02-12T22:02:06.464Z,6.70
2018-02-12T22:04:33.795Z,7.50
2018-02-12T22:07:01.221Z,8.70
2018-02-12T22:09:28.588Z,9.40
2018-02-12T22:11:55.923Z,8.13
2018-02-12T22:14:23.285Z,9.93
2018-02-12T22:16:50.623Z,11.30
2018-02-12T22:19:18.028Z,7.40
2018-02-12T22:21:45.354Z,7.67
2018-02-12T22:24:13.715Z,8.43
2018-02-12T22:26:41.124Z,7.20
2018-02-12T22:29:08.462Z,6.93
2018-02-12T22:31:35.821Z,6.37
2018-02-12T22:34:03.161Z,6.27
2018-02-12T22:36:30.520Z,6.93
2018-02-12T22:38:57.855Z,5.87
2018-02-12T22:41:26.115Z,6.57
2018-02-12T22:43:53.466Z,6.40
2018-02-12T22:46:20.843Z,6.40
2018-02-12T22:48:48.168Z,5.77
2018-02-12T22:51:15.506Z,6.00
2018-02-12T22:53:42.867Z,5.00
2018-02-12T22:56:10.195Z,4.30
2018-02-12T22:58:37.553Z,4.47
2018-02-12T23:01:04.882Z,5.30
2018-02-12T23:03:32.270Z,5.73
2018-02-12T23:05:59.676Z,5.10
2018-02-12T23:08:27.064Z,5.20
2018-02-12T23:10:54.395Z,5.70
2018-02-12T23:13:21.731Z,4.50
2018-02-12T23:15:49.086Z,5.33
2018-02-12T23:18:16.426Z,4.93
2018-02-12T23:20:43.811Z,5.30
2018-02-12T23:23:11.151Z,5.13
2018-02-12T23:25:38.503Z,4.73
2018-02-12T23:28:05.869Z,4.27
2018-02-12T23:30:33.226Z,4.90
2018-02-12T23:33:00.559Z,5.00
2018-02-12T23:35:27.941Z,5.07
2018-02-12T23:37:55.272Z,5.17
2018-02-12T23:40:22.612Z,5.53
2018-02-12T23:42:49.966Z,5.60
2018-02-12T23:45:17.296Z,5.37
2018-02-12T23:47:44.655Z,5.30
2018-02-12T23:50:11.997Z,5.10
2018-02-12T23:52:39.407Z,5.63
2018-02-12T23:55:06.716Z,6.40
2018-02-12T23:57:34.107Z,6.20
